createdAt,value
2023-01-17T00:00:12.980Z,78.23
2023-01-17T00:03:04.895Z,78.40
2023-01-17T00:05:52.108Z,78.52
2023-01-17T00:08:55.716Z,78.69
2023-01-17T00:11:26.674Z,78.97
2023-01-17T00:13:58.539Z,79.28
2023-01-17T00:16:27.126Z,79.20
2023-01-17T00:19:16.780Z,79.40
2023-01-17T00:22:07.597Z,79.58
2023-01-17T00:25:00.807Z,79.55
2023-01-17T00:27:30.367Z,79.53
2023-01-17T00:30:03.679Z,79.77
2023-01-17T00:32:32.150Z,79.94
2023-01-17T00:35:03.205Z,79.98
2023-01-17T00:37:31.619Z,80.19
2023-01-17T00:40:02.599Z,80.16
2023-01-17T00:42:35.957Z,80.22
2023-01-17T00:45:34.325Z,80.17
2023-01-17T00:48:24.461Z,80.24
2023-01-17T00:51:12.665Z,80.20
2023-01-17T00:54:02.270Z,80.10
2023-01-17T00:56:49.417Z,79.65
2023-01-17T00:59:36.477Z,78.88
2023-01-17T01:02:29.179Z,78.06
2023-01-17T01:05:18.924Z,77.53
2023-01-17T01:08:08.604Z,77.83
2023-01-17T01:11:00.759Z,77.64
2023-01-17T01:13:54.144Z,77.52
2023-01-17T01:16:41.153Z,77.56
2023-01-17T01:19:28.189Z,77.47
2023-01-17T01:22:20.837Z,77.41
2023-01-17T01:25:08.005Z,77.42
2023-01-17T01:27:55.208Z,76.97
2023-01-17T01:30:42.751Z,76.96
2023-01-17T01:33:21.021Z,76.91
2023-01-17T01:35:55.207Z,77.09
2023-01-17T01:38:25.618Z,77.22
2023-01-17T01:40:58.817Z,76.93
2023-01-17T01:43:39.835Z,76.94
2023-01-17T01:46:11.807Z,76.98
2023-01-17T01:49:13.406Z,76.55
2023-01-17T01:51:46.588Z,76.75
2023-01-17T01:54:25.962Z,76.76
2023-01-17T01:56:57.878Z,76.88
2023-01-17T01:59:26.979Z,77.00
2023-01-17T02:02:01.360Z,77.24
2023-01-17T02:04:35.508Z,77.48
2023-01-17T02:07:15.485Z,77.42
2023-01-17T02:09:45.051Z,76.48
2023-01-17T02:12:13.973Z,76.60
2023-01-17T02:14:44.962Z,76.67
2023-01-17T02:17:31.706Z,76.74
2023-01-17T02:20:28.534Z,76.58
2023-01-17T02:23:15.489Z,76.70
2023-01-17T02:25:53.083Z,76.38
2023-01-17T02:28:49.671Z,76.18
2023-01-17T02:31:46.148Z,75.99
2023-01-17T02:34:28.844Z,75.76
2023-01-17T02:37:24.245Z,75.32
2023-01-17T02:40:06.531Z,74.99
2023-01-17T02:42:42.419Z,75.23
2023-01-17T02:45:18.422Z,75.12
2023-01-17T02:47:47.079Z,75.09
2023-01-17T02:50:19.658Z,74.99
2023-01-17T02:52:57.085Z,74.97
2023-01-17T02:55:58.744Z,75.24
2023-01-17T02:58:56.112Z,75.41
2023-01-17T03:01:59.847Z,75.54
2023-01-17T03:05:12.428Z,75.58
2023-01-17T03:07:44.482Z,75.69
2023-01-17T03:10:17.302Z,75.74
2023-01-17T03:12:46.878Z,75.80
2023-01-17T03:15:17.798Z,75.92
2023-01-17T03:17:49.854Z,75.91
2023-01-17T03:20:18.492Z,75.84
2023-01-17T03:22:47.205Z,75.85
2023-01-17T03:25:16.915Z,75.74
2023-01-17T03:27:45.536Z,75.55
2023-01-17T03:30:14.540Z,75.63
2023-01-17T03:32:46.996Z,75.63
2023-01-17T03:35:21.256Z,75.44
2023-01-17T03:37:52.750Z,75.47
2023-01-17T03:40:23.904Z,75.63
2023-01-17T03:42:52.625Z,75.50
2023-01-17T03:45:21.288Z,75.50
2023-01-17T03:47:49.945Z,75.35
2023-01-17T03:50:18.563Z,75.55
2023-01-17T03:52:53.891Z,75.52
2023-01-17T03:55:22.459Z,75.66
2023-01-17T03:57:51.008Z,75.69
2023-01-17T04:00:21.045Z,75.90
2023-01-17T04:02:50.669Z,76.09
2023-01-17T04:05:20.078Z,76.47
2023-01-17T04:07:48.622Z,76.95
2023-01-17T04:10:18.480Z,76.73
2023-01-17T04:12:47.304Z,76.71
2023-01-17T04:15:20.582Z,76.93
2023-01-17T04:17:49.264Z,76.90
2023-01-17T04:20:29.779Z,77.10
2023-01-17T04:23:04.534Z,77.29
2023-01-17T04:25:40.883Z,77.16
2023-01-17T04:28:18.416Z,77.43
2023-01-17T04:30:58.214Z,77.55
2023-01-17T04:33:26.864Z,77.56
2023-01-17T04:35:55.937Z,77.55
2023-01-17T04:38:27.634Z,77.54
2023-01-17T04:41:01.580Z,77.66
2023-01-17T04:43:32.496Z,77.97
2023-01-17T04:46:10.919Z,78.29
2023-01-17T04:48:39.613Z,78.22
2023-01-17T04:51:08.275Z,78.37
2023-01-17T04:53:42.141Z,78.63
2023-01-17T04:56:13.354Z,78.76
2023-01-17T04:58:42.120Z,78.64
2023-01-17T05:01:13.750Z,78.49
2023-01-17T05:03:44.604Z,77.63
2023-01-17T05:06:13.141Z,77.29
2023-01-17T05:08:52.515Z,77.05
2023-01-17T05:11:21.135Z,76.70
2023-01-17T05:13:52.474Z,76.12
2023-01-17T05:16:21.269Z,75.50
2023-01-17T05:18:58.622Z,75.38
2023-01-17T05:21:27.114Z,74.92
2023-01-17T05:23:58.799Z,74.42
2023-01-17T05:26:27.319Z,74.31
2023-01-17T05:28:55.806Z,74.10
2023-01-17T05:31:24.439Z,73.93
2023-01-17T05:33:52.922Z,78.33
2023-01-17T05:36:21.495Z,79.79
2023-01-17T05:38:50.151Z,79.18
2023-01-17T05:41:18.742Z,77.68
2023-01-17T05:43:47.267Z,78.06
2023-01-17T05:46:16.491Z,77.45
2023-01-17T05:48:45.047Z,77.21
2023-01-17T05:51:13.536Z,76.30
2023-01-17T05:53:42.014Z,76.00
2023-01-17T05:56:10.743Z,74.11
2023-01-17T05:58:40.334Z,71.74
2023-01-17T06:01:08.954Z,71.69
2023-01-17T06:03:37.938Z,72.16
2023-01-17T06:06:11.603Z,72.37
2023-01-17T06:08:40.640Z,72.69
2023-01-17T06:11:09.332Z,73.01
2023-01-17T06:13:37.929Z,73.45
2023-01-17T06:16:06.968Z,73.64
2023-01-17T06:18:35.715Z,73.89
2023-01-17T06:21:05.451Z,74.24
2023-01-17T06:23:35.057Z,74.41
2023-01-17T06:26:05.045Z,74.56
2023-01-17T06:28:34.254Z,75.04
2023-01-17T06:31:08.124Z,75.25
2023-01-17T06:33:37.868Z,75.00
2023-01-17T06:36:06.576Z,75.07
2023-01-17T06:38:38.287Z,75.08
2023-01-17T06:41:07.056Z,75.21
2023-01-17T06:43:35.863Z,75.36
2023-01-17T06:46:05.303Z,75.57
2023-01-17T06:48:34.100Z,75.62
2023-01-17T06:51:02.637Z,75.60
2023-01-17T06:53:31.435Z,75.74
2023-01-17T06:56:00.595Z,76.01
2023-01-17T06:58:29.199Z,76.27
2023-01-17T07:00:57.892Z,76.44
2023-01-17T07:03:27.481Z,76.24
2023-01-17T07:06:01.420Z,76.26
2023-01-17T07:08:35.376Z,76.48
2023-01-17T07:11:06.810Z,76.41
2023-01-17T07:13:43.846Z,76.49
2023-01-17T07:16:13.556Z,76.46
2023-01-17T07:22:13.232Z,76.44
2023-01-17T07:24:48.940Z,76.67
2023-01-17T07:27:17.574Z,76.57
2023-01-17T07:29:54.206Z,76.61
2023-01-17T07:32:32.036Z,76.32
2023-01-17T07:35:06.332Z,76.29
2023-01-17T07:37:56.512Z,76.54
2023-01-17T07:40:29.138Z,76.77
2023-01-17T07:43:16.926Z,77.69
2023-01-17T07:45:53.506Z,77.71
2023-01-17T07:48:25.542Z,77.65
2023-01-17T07:50:58.744Z,77.59
2023-01-17T07:53:30.021Z,77.62
2023-01-17T07:59:24.182Z,77.32
2023-01-17T08:01:55.867Z,77.27
2023-01-17T08:04:35.378Z,77.09
2023-01-17T08:07:07.062Z,77.28
2023-01-17T08:09:39.295Z,77.18
2023-01-17T08:12:19.405Z,77.29
2023-01-17T08:14:48.006Z,77.47
2023-01-17T08:17:20.618Z,77.24
2023-01-17T08:19:53.328Z,76.58
2023-01-17T08:22:22.620Z,76.65
2023-01-17T08:25:01.584Z,76.64
2023-01-17T08:27:37.302Z,76.63
2023-01-17T08:30:31.930Z,76.59
2023-01-17T08:33:04.639Z,75.70
2023-01-17T08:35:35.570Z,75.84
2023-01-17T08:38:07.363Z,74.69
2023-01-17T08:40:36.036Z,74.29
2023-01-17T08:43:17.736Z,73.85
2023-01-17T08:45:50.525Z,72.69
2023-01-17T08:48:24.184Z,70.22
2023-01-17T08:51:04.159Z,69.17
2023-01-17T08:53:34.382Z,69.63
2023-01-17T08:56:05.475Z,69.03
2023-01-17T08:58:36.279Z,68.42
2023-01-17T09:01:10.449Z,69.13
2023-01-17T09:03:40.903Z,69.19
2023-01-17T09:06:12.840Z,68.99
2023-01-17T09:08:42.316Z,68.92
2023-01-17T09:11:13.005Z,68.93
2023-01-17T09:13:42.381Z,69.15
2023-01-17T09:16:15.324Z,68.99
2023-01-17T09:18:43.951Z,68.78
2023-01-17T09:21:22.755Z,68.70
2023-01-17T09:23:58.167Z,68.42
2023-01-17T09:26:30.538Z,68.18
2023-01-17T09:29:02.364Z,68.61
2023-01-17T09:31:34.279Z,69.20
2023-01-17T09:34:06.735Z,69.52
2023-01-17T09:36:35.587Z,69.41
2023-01-17T09:39:16.030Z,68.63
2023-01-17T09:41:50.736Z,68.24
2023-01-17T09:44:22.279Z,68.34
2023-01-17T09:47:03.454Z,68.59
2023-01-17T09:49:43.964Z,67.99
2023-01-17T09:52:21.212Z,67.46
2023-01-17T09:54:51.684Z,66.29
2023-01-17T09:57:23.043Z,66.05
2023-01-17T10:00:06.170Z,65.79
2023-01-17T10:02:54.030Z,65.78
2023-01-17T10:05:28.653Z,65.93
2023-01-17T10:08:34.084Z,66.13
2023-01-17T10:11:23.532Z,65.67
2023-01-17T10:14:20.498Z,65.49
2023-01-17T10:17:07.971Z,65.44
2023-01-17T10:20:04.348Z,65.03
2023-01-17T10:22:52.453Z,64.89
2023-01-17T10:25:43.275Z,61.72
2023-01-17T10:28:22.889Z,62.07
2023-01-17T10:31:06.338Z,63.01
2023-01-17T10:33:45.110Z,62.99
2023-01-17T10:36:26.448Z,62.84
2023-01-17T10:39:00.915Z,61.17
2023-01-17T10:41:33.963Z,60.69
2023-01-17T10:44:27.498Z,59.83
2023-01-17T10:47:06.136Z,58.17
2023-01-17T10:49:43.088Z,59.43
2023-01-17T10:52:37.498Z,58.65
2023-01-17T10:55:25.831Z,58.94
2023-01-17T10:57:55.461Z,59.01
2023-01-17T11:00:46.776Z,59.20
2023-01-17T11:03:17.663Z,57.88
2023-01-17T11:05:46.402Z,56.69
2023-01-17T11:08:15.228Z,56.86
2023-01-17T11:10:49.074Z,57.27
2023-01-17T11:13:34.417Z,57.95
2023-01-17T11:16:17.022Z,58.24
2023-01-17T11:18:45.988Z,57.72
2023-01-17T11:21:25.863Z,58.26
2023-01-17T11:23:59.045Z,58.61
2023-01-17T11:26:33.377Z,58.34
2023-01-17T11:29:37.498Z,58.15
2023-01-17T11:32:21.639Z,57.69
2023-01-17T11:38:27.741Z,57.73
2023-01-17T11:41:16.238Z,58.48
2023-01-17T11:43:59.201Z,58.28
2023-01-17T11:46:31.119Z,58.34
2023-01-17T11:49:02.320Z,58.17
2023-01-17T11:51:44.365Z,58.52
2023-01-17T11:54:26.028Z,58.37
2023-01-17T11:57:02.106Z,57.91
2023-01-17T11:59:37.784Z,57.19
2023-01-17T12:02:32.092Z,57.19
2023-01-17T12:05:06.004Z,56.98
2023-01-17T12:08:05.804Z,56.66
2023-01-17T12:10:56.443Z,56.33
2023-01-17T12:14:00.013Z,56.95
2023-01-17T12:16:50.559Z,57.32
2023-01-17T12:19:32.860Z,56.87
2023-01-17T12:22:35.295Z,57.42
2023-01-17T12:25:23.837Z,56.79
2023-01-17T12:28:27.250Z,56.66
2023-01-17T12:31:11.306Z,56.66
2023-01-17T12:33:59.080Z,56.36
2023-01-17T12:36:50.126Z,56.98
2023-01-17T12:39:22.740Z,56.87
2023-01-17T12:41:59.987Z,56.73
2023-01-17T12:44:51.981Z,56.39
2023-01-17T12:47:24.343Z,56.26
2023-01-17T12:49:52.955Z,57.12
2023-01-17T12:52:37.446Z,57.25
2023-01-17T12:55:12.360Z,56.77
2023-01-17T12:57:48.132Z,56.70
2023-01-17T13:00:23.302Z,56.39
2023-01-17T13:03:20.587Z,56.17
2023-01-17T13:05:53.507Z,56.32
2023-01-17T13:08:49.876Z,56.33
2023-01-17T13:11:28.808Z,55.42
2023-01-17T13:14:00.119Z,54.98
2023-01-17T13:16:59.031Z,54.33
2023-01-17T13:19:36.984Z,53.44
2023-01-17T13:22:10.046Z,53.16
2023-01-17T13:24:52.347Z,53.80
2023-01-17T13:27:39.950Z,53.80
2023-01-17T13:30:43.727Z,52.96
2023-01-17T13:33:39.376Z,52.90
2023-01-17T13:36:33.025Z,53.48
2023-01-17T13:39:40.743Z,53.86
2023-01-17T13:42:24.110Z,53.28
2023-01-17T13:44:52.891Z,53.00
2023-01-17T13:47:23.676Z,53.01
2023-01-17T13:49:56.650Z,52.85
2023-01-17T13:52:25.300Z,53.33
2023-01-17T13:54:56.452Z,53.72
2023-01-17T13:57:43.744Z,53.91
2023-01-17T14:00:34.224Z,54.35
2023-01-17T14:03:03.066Z,54.92
2023-01-17T14:05:31.470Z,55.21
2023-01-17T14:08:15.144Z,55.10
2023-01-17T14:10:53.987Z,55.12
2023-01-17T14:13:36.065Z,55.31
2023-01-17T14:16:29.330Z,54.85
2023-01-17T14:18:57.728Z,54.50
2023-01-17T14:21:32.220Z,54.89
2023-01-17T14:24:13.220Z,54.72
2023-01-17T14:26:51.725Z,54.57
2023-01-17T14:29:46.821Z,54.90
2023-01-17T14:32:19.204Z,54.97
2023-01-17T14:34:50.587Z,55.21
2023-01-17T14:37:22.939Z,55.43
2023-01-17T14:39:52.305Z,55.64
2023-01-17T14:42:24.465Z,55.66
2023-01-17T14:45:02.504Z,55.80
2023-01-17T14:47:35.395Z,56.18
2023-01-17T14:50:26.237Z,56.45
2023-01-17T14:53:13.570Z,56.60
2023-01-17T14:55:48.376Z,57.02
2023-01-17T14:58:23.952Z,57.27
2023-01-17T15:01:02.657Z,57.68
2023-01-17T15:03:35.859Z,59.55
2023-01-17T15:06:20.120Z,60.75
2023-01-17T15:08:50.270Z,61.62
2023-01-17T15:11:25.389Z,62.22
2023-01-17T15:13:57.668Z,62.65
2023-01-17T15:16:27.505Z,63.41
2023-01-17T15:18:57.763Z,64.31
2023-01-17T15:21:42.530Z,65.03
2023-01-17T15:24:21.691Z,66.23
2023-01-17T15:26:50.413Z,66.86
2023-01-17T15:29:27.054Z,67.72
2023-01-17T15:32:00.788Z,68.19
2023-01-17T15:34:40.976Z,68.51
2023-01-17T15:37:30.975Z,68.72
2023-01-17T15:40:26.839Z,68.91
2023-01-17T15:43:01.181Z,69.33
2023-01-17T15:45:33.857Z,69.85
2023-01-17T15:48:36.696Z,70.59
2023-01-17T15:51:06.348Z,70.73
2023-01-17T15:53:38.923Z,70.90
2023-01-17T15:56:32.009Z,71.06
2023-01-17T15:59:20.928Z,71.11
2023-01-17T16:01:56.412Z,71.08
2023-01-17T16:04:33.737Z,71.19
2023-01-17T16:07:35.567Z,71.25
2023-01-17T16:10:15.674Z,71.43
2023-01-17T16:12:53.402Z,71.55
2023-01-17T16:15:26.010Z,71.62
2023-01-17T16:18:16.872Z,71.65
2023-01-17T16:20:55.305Z,71.53
2023-01-17T16:23:29.147Z,71.63
2023-01-17T16:26:00.817Z,71.81
2023-01-17T16:28:30.227Z,71.93
2023-01-17T16:30:58.732Z,72.03
2023-01-17T16:33:27.294Z,72.02
2023-01-17T16:35:56.136Z,72.01
2023-01-17T16:38:24.651Z,71.97
2023-01-17T16:40:54.274Z,71.96
2023-01-17T16:43:23.749Z,71.83
2023-01-17T16:45:54.310Z,71.76
2023-01-17T16:48:22.923Z,71.69
2023-01-17T16:50:54.027Z,71.63
2023-01-17T16:53:25.582Z,71.52
2023-01-17T16:55:57.744Z,71.30
2023-01-17T16:58:26.325Z,71.26
2023-01-17T17:00:56.752Z,71.17
2023-01-17T17:03:25.588Z,71.15
2023-01-17T17:05:59.887Z,71.27
2023-01-17T17:08:29.698Z,71.27
2023-01-17T17:11:14.863Z,71.30
2023-01-17T17:13:46.929Z,71.50
2023-01-17T17:16:22.012Z,71.47
2023-01-17T17:19:06.091Z,71.41
2023-01-17T17:21:35.539Z,71.27
2023-01-17T17:24:04.549Z,71.10
2023-01-17T17:26:36.472Z,70.90
2023-01-17T17:29:06.819Z,70.73
2023-01-17T17:31:35.450Z,70.68
2023-01-17T17:34:09.291Z,70.52
2023-01-17T17:36:39.038Z,70.62
2023-01-17T17:39:11.707Z,70.70
2023-01-17T17:41:43.152Z,70.79
2023-01-17T17:44:18.559Z,70.70
2023-01-17T17:46:50.100Z,70.72
2023-01-17T17:49:18.613Z,70.65
2023-01-17T17:51:48.264Z,70.69
2023-01-17T17:54:20.125Z,70.83
2023-01-17T17:56:49.637Z,70.85
2023-01-17T17:59:19.681Z,70.98
2023-01-17T18:01:48.899Z,71.11
2023-01-17T18:04:19.244Z,71.31
2023-01-17T18:06:48.019Z,71.45
2023-01-17T18:09:17.883Z,71.52
2023-01-17T18:11:46.258Z,71.56
2023-01-17T18:14:15.886Z,71.65
2023-01-17T18:16:45.027Z,71.74
2023-01-17T18:19:40.331Z,71.83
2023-01-17T18:22:08.897Z,72.06
2023-01-17T18:24:37.664Z,72.32
2023-01-17T18:27:06.601Z,72.51
2023-01-17T18:29:35.637Z,72.84
2023-01-17T18:32:04.251Z,72.91
2023-01-17T18:34:34.907Z,73.04
2023-01-17T18:37:03.383Z,73.83
2023-01-17T18:39:32.398Z,73.96
2023-01-17T18:42:01.363Z,74.29
2023-01-17T18:44:30.538Z,74.73
2023-01-17T18:47:04.592Z,75.09
2023-01-17T18:49:34.345Z,75.05
2023-01-17T18:52:03.711Z,75.17
2023-01-17T18:54:32.971Z,75.42
2023-01-17T18:57:07.790Z,75.79
2023-01-17T18:59:36.984Z,76.06
2023-01-17T19:02:07.159Z,76.39
2023-01-17T19:04:38.050Z,76.72
2023-01-17T19:07:12.526Z,76.96
2023-01-17T19:09:41.894Z,76.84
2023-01-17T19:12:11.036Z,76.91
2023-01-17T19:14:40.133Z,76.97
2023-01-17T19:17:09.310Z,77.26
2023-01-17T19:19:41.436Z,77.83
2023-01-17T19:22:10.694Z,77.79
2023-01-17T19:24:40.701Z,78.01
2023-01-17T19:27:21.249Z,77.87
2023-01-17T19:29:50.527Z,77.96
2023-01-17T19:32:19.681Z,78.45
2023-01-17T19:34:51.530Z,78.64
2023-01-17T19:37:20.745Z,78.74
2023-01-17T19:39:51.785Z,79.23
2023-01-17T19:42:23.497Z,79.22
2023-01-17T19:44:52.716Z,79.20
2023-01-17T19:47:22.004Z,79.61
2023-01-17T19:49:51.152Z,80.32
2023-01-17T19:52:22.359Z,80.32
2023-01-17T19:54:52.167Z,80.50
2023-01-17T19:57:24.483Z,81.15
2023-01-17T19:59:54.699Z,81.55
2023-01-17T20:02:23.941Z,81.42
2023-01-17T20:04:53.261Z,81.44
2023-01-17T20:07:23.150Z,81.37
2023-01-17T20:09:52.229Z,81.49
2023-01-17T20:12:21.283Z,81.89
2023-01-17T20:14:52.259Z,82.11
2023-01-17T20:17:21.736Z,82.39
2023-01-17T20:19:50.944Z,82.43
2023-01-17T20:22:21.790Z,82.28
2023-01-17T20:24:51.165Z,82.83
2023-01-17T20:27:26.730Z,82.78
2023-01-17T20:29:56.687Z,82.89
2023-01-17T20:32:25.718Z,83.14
2023-01-17T20:34:55.043Z,83.10
2023-01-17T20:37:24.073Z,83.07
2023-01-17T20:39:54.317Z,83.16
2023-01-17T20:42:23.667Z,83.56
2023-01-17T20:44:52.831Z,83.71
2023-01-17T20:47:22.304Z,83.59
2023-01-17T20:49:51.370Z,83.71
2023-01-17T20:52:20.547Z,83.92
2023-01-17T20:54:50.423Z,84.03
2023-01-17T20:57:20.296Z,84.18
2023-01-17T20:59:49.469Z,84.11
2023-01-17T21:02:21.343Z,84.54
2023-01-17T21:04:50.517Z,84.65
2023-01-17T21:07:20.493Z,85.35
2023-01-17T21:09:49.859Z,85.38
2023-01-17T21:12:19.180Z,85.71
2023-01-17T21:14:48.480Z,85.49
2023-01-17T21:17:18.827Z,85.88
2023-01-17T21:19:47.730Z,86.09
2023-01-17T21:22:17.180Z,86.60
2023-01-17T21:24:45.940Z,87.33
2023-01-17T21:27:17.156Z,87.13
2023-01-17T21:29:45.842Z,87.01
2023-01-17T21:32:14.793Z,87.20
2023-01-17T21:34:43.421Z,87.26
2023-01-17T21:37:12.774Z,87.51
2023-01-17T21:39:42.273Z,87.66
2023-01-17T21:42:13.591Z,88.32
2023-01-17T21:44:49.578Z,88.35
2023-01-17T21:47:18.338Z,88.37
2023-01-17T21:49:46.996Z,88.77
2023-01-17T21:52:18.470Z,89.01
2023-01-17T21:55:05.582Z,89.05
2023-01-17T21:57:52.570Z,88.98
2023-01-17T22:00:26.220Z,89.13
2023-01-17T22:02:54.953Z,89.15
2023-01-17T22:05:24.337Z,89.07
2023-01-17T22:08:11.562Z,89.01
2023-01-17T22:10:47.178Z,89.13
2023-01-17T22:13:19.968Z,89.23
2023-01-17T22:15:58.616Z,89.15
2023-01-17T22:18:28.059Z,88.71
2023-01-17T22:20:57.843Z,88.54
2023-01-17T22:23:27.024Z,88.92
2023-01-17T22:26:02.781Z,89.10
2023-01-17T22:28:33.725Z,89.20
2023-01-17T22:31:17.278Z,89.12
2023-01-17T22:33:47.781Z,89.26
2023-01-17T22:36:16.492Z,89.14
2023-01-17T22:38:45.348Z,88.99
2023-01-17T22:41:16.644Z,88.54
2023-01-17T22:43:48.154Z,88.64
2023-01-17T22:46:19.322Z,88.42
2023-01-17T22:48:48.257Z,88.68
2023-01-17T22:51:18.863Z,88.96
2023-01-17T22:53:53.075Z,88.92
2023-01-17T22:56:27.643Z,88.72
2023-01-17T22:58:56.496Z,88.57
2023-01-17T23:01:28.459Z,88.28
2023-01-17T23:04:02.194Z,88.04
2023-01-17T23:06:36.111Z,88.53
2023-01-17T23:09:10.913Z,88.87
2023-01-17T23:11:50.048Z,88.70
2023-01-17T23:14:27.083Z,88.41
2023-01-17T23:17:16.121Z,88.21
2023-01-17T23:19:56.826Z,88.24
2023-01-17T23:22:27.280Z,87.88
2023-01-17T23:24:55.913Z,88.30
2023-01-17T23:28:00.020Z,88.73
2023-01-17T23:30:29.296Z,89.14
2023-01-17T23:33:00.113Z,89.76
2023-01-17T23:35:31.882Z,89.98
2023-01-17T23:38:22.442Z,90.10
2023-01-17T23:41:10.155Z,90.37
2023-01-17T23:43:38.769Z,90.46
2023-01-17T23:46:12.481Z,90.50
2023-01-17T23:48:41.140Z,90.71
2023-01-17T23:51:09.788Z,91.20
2023-01-17T23:53:39.500Z,91.18
2023-01-17T23:56:16.637Z,91.86
2023-01-17T23:58:50.985Z,92.39
